Latest Weather Observations for Kingscote

IDS60801

Issued at 2:01 am CDT Thursday 20 December 2018 (issued every 10 minutes, with the page automatically refreshed every 10 minutes)

About weather observations | Map of weather stations | Latest weather observations for SA | Other Formats
Station Details ID: 022841 Name: KINGSCOTE AERO Lat: -35.71 Lon: 137.52 Height: 6.23 m
Data from the previous 72 hours. | See also: Recent months at Kingscote
Date/Time
CDT
Temp
°C
App
Temp
°C
Dew
Point
°C
Rel
Hum
%
Delta-T
°C
Wind Press
QNH
hPa
Press
MSL
hPa
Rain since
9am
mm
Dir  Spd
km/h
Gust
km/h
Spd
kts
Gust
kts
20/02:00am 16.1 13.0 14.6 91 0.9 S 24 32 13 17 1012.3 1012.3 1.8
20/01:30am 16.0 13.0 14.9 93 0.6 S 24 33 13 18 1012.5 1012.5 1.8
20/01:00am 16.1 12.8 15.0 93 0.6 S 26 35 14 19 1012.6 1012.6 1.8
20/12:30am 16.1 12.8 15.1 94 0.6 S 26 35 14 19 1012.7 1012.7 1.8
20/12:00am 16.5 13.8 15.5 94 0.6 S 24 32 13 17 1012.7 1012.7 1.8
 
Date/Time
CDT
Temp
°C
App
Temp
°C
Dew
Point
°C
Rel
Hum
%
Delta-T
°C
Wind Press
QNH
hPa
Press
MSL
hPa
Rain since
9am
mm
Dir  Spd
km/h
Gust
km/h
Spd
kts
Gust
kts
19/11:30pm 17.0 14.6 15.5 91 0.9 S 22 32 12 17 1012.5 1012.5 1.8
19/11:04pm 16.9 15.4 15.2 90 1.0 SSW 17 22 9 12 1012.3 1012.3 1.8
19/11:00pm 16.8 15.7 15.2 90 0.9 SSW 15 20 8 11 1012.3 1012.3 1.8
19/10:30pm 17.0 15.4 15.0 88 1.2 S 17 20 9 11 1012.0 1012.0 1.8
19/10:00pm 17.3 15.2 15.3 88 1.2 S 20 24 11 13 1011.8 1011.8 1.8
19/09:30pm 17.8 15.5 15.8 88 1.2 S 22 30 12 16 1011.5 1011.5 1.8
19/09:00pm 18.2 16.0 16.0 87 1.3 S 22 30 12 16 1011.1 1011.1 1.8
19/08:30pm 18.9 16.1 16.3 85 1.6 S 26 35 14 19 1010.7 1010.7 1.8
19/08:00pm 20.2 16.7 16.6 80 2.2 S 30 43 16 23 1010.2 1010.2 1.8
19/07:30pm 22.1 18.8 17.0 73 3.1 S 30 39 16 21 1009.7 1009.7 1.8
19/07:00pm 24.2 21.0 17.2 65 4.3 SSE 30 35 16 19 1008.9 1008.9 1.8
19/06:30pm 24.8 21.1 16.0 58 5.4 SSE 30 43 16 23 1008.5 1008.5 1.8
19/06:00pm 27.6 24.0 14.3 44 8.0 SE 26 33 14 18 1008.0 1008.0 1.8
19/05:30pm 28.4 25.1 15.0 44 8.2 SE 26 35 14 19 1007.9 1007.9 1.8
19/05:00pm 28.6 25.7 16.2 47 7.7 SE 26 39 14 21 1007.9 1007.9 1.8
19/04:30pm 28.5 26.0 15.1 44 8.2 SE 22 32 12 17 1007.9 1007.9 1.8
19/04:00pm 28.1 26.0 16.1 48 7.4 SE 22 32 12 17 1008.1 1008.1 1.8
19/03:30pm 27.9 26.0 16.8 50 6.9 SE 22 30 12 16 1008.3 1008.3 1.8
19/03:00pm 27.5 24.2 17.1 53 6.5 SSE 30 37 16 20 1008.4 1008.4 1.8
19/02:30pm 28.3 26.5 16.9 50 7.1 ESE 22 30 12 16 1008.5 1008.5 1.8
19/02:00pm 28.6 26.9 18.1 53 6.7 ESE 24 39 13 21 1008.5 1008.5 1.8
19/01:30pm 27.6 26.2 18.0 55 6.1 SE 22 32 12 17 1008.5 1008.5 1.8
19/01:00pm 27.2 25.8 17.9 56 5.9 ESE 22 35 12 19 1008.7 1008.7 1.8
19/12:30pm 26.6 24.9 18.2 60 5.3 ESE 24 35 13 19 1008.8 1008.8 1.8
19/12:00pm 25.4 23.7 18.1 64 4.6 ESE 24 32 13 17 1009.1 1009.1 1.8
19/11:30am 24.5 24.6 19.1 72 3.5 ESE 17 28 9 15 1009.7 1009.7 1.8
19/11:00am 22.7 22.5 18.5 77 2.6 E 17 24 9 13 1010.1 1010.1 1.8
19/10:30am 21.0 22.0 19.5 91 1.0 ESE 13 19 7 10 1010.1 1010.1 1.8
19/10:00am 18.8 18.4 18.1 96 0.4 E 17 22 9 12 1010.1 1010.1 1.8
19/09:30am 18.0 17.6 17.2 95 0.5 SSE 15 20 8 11 1010.4 1010.4 1.6
19/09:00am 17.8 17.7 17.0 95 0.5 ESE 13 20 7 11 1011.0 1011.0 10.0
19/08:30am 17.8 17.3 16.8 94 0.6 ENE 15 30 8 16 1010.4 1010.4 9.0
19/08:00am 17.8 15.5 16.7 93 0.7 SE 24 35 13 19 1010.0 1010.0 8.2
19/07:30am 18.0 15.4 16.9 93 0.7 SSE 26 37 14 20 1009.7 1009.7 7.6
19/07:00am 17.5 15.9 16.5 94 0.6 S 20 32 11 17 1008.9 1008.9 7.6
19/06:30am 17.4 17.5 16.6 95 0.5 S 11 17 6 9 1009.9 1009.9 7.6
19/06:00am 17.5 16.5 16.5 94 0.6 SW 17 22 9 12 1009.8 1009.8 6.8
19/05:30am 17.5 16.2 16.7 95 0.5 S 19 24 10 13 1008.6 1008.6 6.8
19/05:00am 17.6 17.0 16.6 94 0.6 SSE 15 24 8 13 1008.5 1008.5 6.2
19/04:30am 17.6 14.1 16.6 94 0.6 SSW 30 41 16 22 1009.0 1009.0 5.2
19/04:22am 17.7 13.9 16.7 94 0.6 SSW 32 41 17 22 1008.4 1008.4 5.2
19/04:00am 17.7 18.8 16.6 93 0.7 E 6 22 3 12 1009.0 1009.0 5.0
19/03:30am 18.0 19.1 16.5 91 0.9 WSW 6 9 3 5 1008.7 1008.7 5.0
19/03:00am 18.2 17.1 16.4 89 1.1 S 17 26 9 14 1007.4 1007.4 4.8
19/02:30am 19.0 18.2 17.0 88 1.2 S 17 20 9 11 1007.9 1007.9 4.8
19/02:00am 18.9 18.4 17.0 89 1.1 ENE 15 22 8 12 1007.7 1007.7 4.8
19/01:30am 18.7 16.2 17.0 90 1.0 ENE 26 39 14 21 1007.6 1007.6 4.8
19/01:27am 18.7 16.9 17.0 90 1.0 ENE 22 39 12 21 1007.2 1007.2 4.8
19/01:00am 19.3 18.9 17.1 87 1.3 NE 15 24 8 13 1009.3 1009.3 4.8
19/12:30am 18.4 17.1 16.9 91 0.9 NE 19 28 10 15 1008.7 1008.7 4.8
19/12:00am 17.7 16.7 16.6 93 0.7 E 17 28 9 15 1009.9 1009.9 4.8
 
Date/Time
CDT
Temp
°C
App
Temp
°C
Dew
Point
°C
Rel
Hum
%
Delta-T
°C
Wind Press
QNH
hPa
Press
MSL
hPa
Rain since
9am
mm
Dir  Spd
km/h
Gust
km/h
Spd
kts
Gust
kts
18/11:42pm 17.4 17.5 16.4 94 0.6 E 11 28 6 15 1010.1 1010.1 4.8
18/11:30pm 17.5 18.0 16.5 94 0.6 SSW 9 17 5 9 1012.2 1012.2 4.6
18/11:00pm 17.5 19.3 16.4 93 0.7 S 2 9 1 5 1012.6 1012.6 4.6
18/10:30pm 17.7 17.5 16.7 94 0.6 SSW 13 19 7 10 1012.7 1012.7 4.6
18/10:00pm 17.7 16.7 16.7 94 0.6 SSW 17 20 9 11 1012.4 1012.4 4.6
18/09:30pm 18.0 17.7 16.5 91 0.9 SSE 13 15 7 8 1011.7 1011.7 4.6
18/09:00pm 17.9 17.3 16.6 92 0.8 E 15 19 8 10 1011.4 1011.4 4.6
18/08:30pm 17.8 15.4 16.5 92 0.8 ENE 24 33 13 18 1011.3 1011.3 4.6
18/08:00pm 17.8 17.3 16.8 94 0.6 NE 15 26 8 14 1012.2 1012.2 4.4
18/07:30pm 17.8 18.4 16.8 94 0.6 NNE 9 13 5 7 1012.0 1012.0 4.0
18/07:00pm 17.6 18.1 16.6 94 0.6 ESE 9 13 5 7 1011.8 1011.8 3.8
18/06:30pm 17.8 16.9 16.8 94 0.6 E 17 20 9 11 1011.8 1011.8 3.8
18/06:00pm 17.8 18.0 16.7 93 0.7 SE 11 15 6 8 1013.1 1013.1 3.4
18/05:30pm 18.1 17.6 17.0 93 0.7 S 15 20 8 11 1013.0 1013.0 3.2
18/05:00pm 18.8 18.8 17.3 91 0.9 SSE 13 20 7 11 1013.6 1013.6 2.6
18/04:30pm 19.9 19.4 17.7 87 1.4 S 17 22 9 12 1012.3 1012.3 2.2
18/04:00pm 21.2 20.5 17.4 79 2.3 SE 17 20 9 11 1012.0 1012.0 2.2
18/03:30pm 20.2 21.1 17.6 85 1.6 ESE 9 11 5 6 1012.7 1012.7 2.2
18/03:00pm 19.2 20.4 16.8 86 1.4 E 6 7 3 4 1013.3 1013.3 1.8
18/02:30pm 18.9 19.5 16.7 87 1.3 ENE 9 15 5 8 1013.9 1013.9 1.8
18/02:00pm 18.3 19.4 16.5 89 1.1 ENE 6 7 3 4 1014.0 1014.0 1.8
18/01:39pm 18.3 18.0 16.5 89 1.1 ENE 13 17 7 9 1013.9 1013.9 1.8
18/01:30pm 18.6 17.6 16.6 88 1.2 ENE 17 20 9 11 1014.0 1014.0 1.8
18/01:15pm 19.1 18.9 16.7 86 1.4 ENE 13 20 7 11 1013.9 1013.9 1.8
18/01:00pm 18.8 18.8 17.1 90 1.0 E 13 17 7 9 1013.8 1013.8 1.8
18/12:30pm 17.8 16.8 16.7 93 0.7 ENE 17 28 9 15 1014.1 1014.1 1.8
18/12:00pm 17.3 16.1 16.2 93 0.7 SE 17 22 9 12 1014.2 1014.2 1.6
18/11:30am 17.5 16.3 16.2 92 0.8 SSE 17 24 9 13 1014.1 1014.1 0.8
18/11:00am 17.8 17.0 16.0 89 1.1 SE 15 19 8 10 1014.2 1014.2 0.4
18/10:30am 18.5 18.8 15.9 85 1.5 SE 9 13 5 7 1014.7 1014.7 0.0
18/10:00am 18.3 17.7 15.7 85 1.5 E 13 17 7 9 1014.2 1014.2 0.0
18/09:30am 18.1 17.5 15.7 86 1.4 E 13 19 7 10 1014.6 1014.6 0.0
18/09:26am 18.1 17.5 15.7 86 1.4 E 13 17 7 9 1014.5 1014.5 0.0
18/09:00am 18.2 17.1 15.3 83 1.7 SE 15 24 8 13 1014.3 1014.3 0.0
18/08:30am 18.0 16.9 15.4 85 1.5 SE 15 28 8 15 1014.3 1014.3 0.0
18/08:00am 17.6 16.1 15.4 87 1.3 SE 17 20 9 11 1014.1 1014.1 0.0
18/07:30am 17.2 16.4 15.2 88 1.2 ESE 13 19 7 10 1014.3 1014.3 0.0
18/07:00am 16.9 14.8 15.1 89 1.0 ESE 20 30 11 16 1013.9 1013.9 0.0
18/06:30am 16.8 14.9 15.2 90 0.9 ESE 19 26 10 14 1013.2 1013.2 0.0
18/06:00am 16.8 14.8 15.0 89 1.0 SE 19 22 10 12 1013.7 1013.7 0.0
18/05:30am 16.9 14.4 15.1 89 1.0 SSE 22 30 12 16 1013.7 1013.7 0.0
18/05:00am 16.7 14.7 14.9 89 1.0 SE 19 22 10 12 1013.6 1013.6 0.0
18/04:30am 16.6 15.0 15.0 90 0.9 SE 17 22 9 12 1013.3 1013.3 0.0
18/04:00am 16.7 15.1 14.9 89 1.0 SSE 17 26 9 14 1013.6 1013.6 0.0
18/03:30am 16.5 14.2 14.7 89 1.0 SSE 20 28 11 15 1013.5 1013.5 0.0
18/03:00am 16.5 13.8 14.7 89 1.0 SSE 22 28 12 15 1013.3 1013.3 0.0
18/02:30am 16.5 14.4 14.7 89 1.0 SE 19 26 10 14 1013.0 1013.0 0.0
18/02:00am 16.5 14.4 14.7 89 1.0 SE 19 26 10 14 1012.9 1012.9 0.0
18/01:30am 16.5 14.2 14.7 89 1.0 SE 20 28 11 15 1013.1 1013.1 0.0
18/01:00am 16.6 13.9 14.6 88 1.1 SSE 22 28 12 15 1013.2 1013.2 0.0
18/12:30am 16.7 14.4 14.7 88 1.2 SE 20 28 11 15 1012.9 1012.9 0.0
18/12:00am 16.7 14.6 14.7 88 1.2 SE 19 28 10 15 1013.0 1013.0 0.0
 
Date/Time
CDT
Temp
°C
App
Temp
°C
Dew
Point
°C
Rel
Hum
%
Delta-T
°C
Wind Press
QNH
hPa
Press
MSL
hPa
Rain since
9am
mm
Dir  Spd
km/h
Gust
km/h
Spd
kts
Gust
kts
17/11:30pm 16.7 13.7 14.7 88 1.1 SE 24 32 13 17 1013.2 1013.2 0.0
17/11:12pm 16.6 13.9 14.6 88 1.1 SE 22 30 12 16 1013.2 1013.2 0.0
17/11:00pm 16.5 13.8 14.5 88 1.1 SE 22 32 12 17 1013.1 1013.1 0.0
17/10:30pm 16.4 14.5 14.2 87 1.3 SE 17 26 9 14 1013.3 1013.3 0.0
17/10:28pm 16.4 14.5 14.2 87 1.3 SE 17 26 9 14 1013.4 1013.4 0.0
17/10:00pm 16.5 14.6 14.3 87 1.3 ESE 17 22 9 12 1012.8 1012.8 0.0
17/09:35pm 16.5 15.4 14.2 86 1.3 SE 13 17 7 9 1013.6 1013.6 0.0
17/09:30pm 16.5 15.4 14.2 86 1.3 SE 13 17 7 9 1013.4 1013.4 0.0
17/09:00pm 16.5 14.2 14.2 86 1.3 ESE 19 26 10 14 1012.6 1012.6 0.0
17/08:31pm 16.5 13.6 14.0 85 1.4 ESE 22 30 12 16 1012.8 1012.8 0.0
17/08:30pm 16.5 13.6 14.0 85 1.4 ESE 22 30 12 16 1012.9 1012.9 0.0
17/08:00pm 16.6 13.3 13.9 84 1.5 ESE 24 30 13 16 1013.1 1013.1 0.0
17/07:30pm 17.0 14.1 13.9 82 1.8 SE 22 28 12 15 1013.6 1013.6 0.0
17/07:00pm 17.4 14.9 14.1 81 1.9 SE 20 26 11 14 1013.7 1013.7 0.0
17/06:30pm 17.4 14.1 13.9 80 2.0 SE 24 30 13 16 1013.4 1013.4 0.0
17/06:08pm 17.7 14.3 13.6 77 2.3 SE 24 32 13 17 1013.4 1013.4 0.0
17/06:00pm 18.1 14.3 13.6 75 2.6 SE 26 35 14 19 1013.3 1013.3 0.0
17/05:30pm 18.9 15.1 13.7 72 3.0 SSE 26 33 14 18 1013.4 1013.4 0.0
17/05:00pm 18.6 14.1 13.9 74 2.7 SE 30 37 16 20 1013.0 1013.0 0.0
17/04:54pm 18.2 14.1 13.7 75 2.6 SE 28 39 15 21 1013.1 1013.1 0.0
17/04:43pm 18.9 15.1 13.7 72 3.0 SE 26 35 14 19 1013.3 1013.3 0.0
17/04:34pm 18.3 14.2 13.8 75 2.6 SE 28 35 15 19 1013.5 1013.5 0.0
17/04:30pm 18.2 14.0 13.5 74 2.7 SE 28 35 15 19 1013.4 1013.4 0.0
17/04:00pm 18.3 14.3 14.0 76 2.5 SE 28 39 15 21 1013.1 1013.1 0.0
17/03:35pm 17.5 13.3 13.6 78 2.2 SE 28 35 15 19 1013.9 1013.9 0.0
17/03:30pm 17.5 13.7 13.6 78 2.2 SSE 26 35 14 19 1014.7 1014.7 0.0
17/03:00pm 18.9 15.1 13.7 72 3.0 SSE 26 33 14 18 1015.3 1015.3 0.0
17/02:30pm 19.1 15.3 13.5 70 3.2 SE 26 35 14 19 1014.6 1014.6 0.0
17/02:00pm 20.1 17.3 13.3 65 3.9 SE 20 32 11 17 1014.6 1014.6 0.0
17/01:30pm 19.5 16.5 13.7 69 3.3 SE 22 32 12 17 1014.9 1014.9 0.0
17/01:00pm 20.6 18.4 14.5 68 3.6 SSE 19 30 10 16 1015.3 1015.3 0.0
17/12:30pm 19.3 16.9 13.9 71 3.1 SSE 19 30 10 16 1015.6 1015.6 0.0
17/12:01pm 19.0 16.3 13.6 71 3.1 SE 20 26 11 14 1015.6 1015.6 0.0
17/12:00pm 19.0 16.3 13.6 71 3.1 SE 20 26 11 14 1015.6 1015.6 0.0
17/11:30am 18.1 15.6 14.0 77 2.3 SE 20 28 11 15 1015.4 1015.4 0.0
17/11:00am 17.8 14.8 14.7 82 1.8 SE 24 30 13 16 1015.1 1015.1 0.0
17/10:30am 17.7 15.6 15.3 86 1.4 SSE 20 28 11 15 1014.7 1014.7 0.0
17/10:00am 16.2 13.6 14.9 92 0.7 SE 22 28 12 15 1014.5 1014.5 0.0
17/09:50am 16.3 14.1 14.8 91 0.9 SE 20 28 11 15 1014.5 1014.5 0.0
17/09:30am 16.1 12.8 14.1 88 1.1 SE 24 32 13 17 1014.7 1014.7 0.0
17/09:00am 16.6 14.0 15.0 90 0.9 SE 22 30 12 16 1014.2 1014.2 0.2
17/08:30am 16.2 13.9 14.7 91 0.9 SE 20 28 11 15 1013.5 1013.5 0.2
17/08:00am 16.1 13.8 14.6 91 0.9 SE 20 26 11 14 1012.9 1012.9 0.2
17/07:30am 15.6 13.2 14.3 92 0.7 SE 20 26 11 14 1012.9 1012.9 0.2
17/07:00am 15.4 14.0 14.6 95 0.5 SSE 15 19 8 10 1012.6 1012.6 0.2
17/06:30am 15.0 13.1 14.2 95 0.5 SSE 17 22 9 12 1012.0 1012.0 0.2
17/06:00am 15.0 13.4 14.0 94 0.6 SE 15 20 8 11 1011.9 1011.9 0.2
17/05:30am 15.1 13.3 14.5 96 0.3 SSE 17 20 9 11 1012.0 1012.0 0.2
17/05:00am 15.5 15.4 14.9 96 0.3 SSE 9 13 5 7 1012.0 1012.0 0.2
17/04:30am 15.5 14.2 14.9 96 0.3 SSE 15 19 8 10 1011.9 1011.9 0.0
17/04:00am 15.4 14.1 14.8 96 0.3 S 15 20 8 11 1011.8 1011.8 0.0
17/03:30am 15.5 14.6 14.9 96 0.3 S 13 17 7 9 1011.9 1011.9 0.0
17/03:00am 15.6 14.8 15.0 96 0.3 S 13 17 7 9 1011.9 1011.9 0.0
17/02:30am 15.7 15.2 14.9 95 0.5 SSW 11 13 6 7 1012.0 1012.0 0.0

Other Formats:

Comma delimited format used in spreadsheet applications
http://www.bom.gov.au/fwo/IDS60801/IDS60801.95807.axf

JavaScript Object Notation format (JSON) in row-major order
http://www.bom.gov.au/fwo/IDS60801/IDS60801.95807.json